sensor_id;sensor_type;location;lat;lon;timestamp;pressure;altitude;pressure_sealevel;temperature;humidity
53514;BME280;39768;54.148;12.174;2023-09-19T03:01:31;100216.31;;;17.08;89.10
53514;BME280;39768;54.148;12.174;2023-09-19T03:05:34;100214.50;;;16.82;90.65
53514;BME280;39768;54.148;12.174;2023-09-19T03:09:36;100225.53;;;16.79;91.10
53514;BME280;39768;54.148;12.174;2023-09-19T04:58:23;100270.28;;;16.15;92.06
53514;BME280;39768;54.148;12.174;2023-09-19T14:00:59;100561.19;;;18.33;44.95
53514;BME280;39768;54.148;12.174;2023-09-19T14:06:36;100555.44;;;18.12;45.50
53514;BME280;39768;54.148;12.174;2023-09-19T14:12:39;100551.03;;;18.49;45.64
53514;BME280;39768;54.148;12.174;2023-09-19T14:17:31;100545.50;;;18.38;45.92
53514;BME280;39768;54.148;12.174;2023-09-19T14:22:29;100547.66;;;18.20;45.69
53514;BME280;39768;54.148;12.174;2023-09-19T14:28:44;100537.13;;;18.15;44.88
53514;BME280;39768;54.148;12.174;2023-09-19T14:33:38;100541.72;;;17.88;44.87
53514;BME280;39768;54.148;12.174;2023-09-19T14:38:46;100548.72;;;18.05;44.10
53514;BME280;39768;54.148;12.174;2023-09-19T14:49:55;100553.16;;;18.06;43.90
53514;BME280;39768;54.148;12.174;2023-09-19T15:19:52;100530.31;;;18.23;43.48
53514;BME280;39768;54.148;12.174;2023-09-19T15:25:21;100510.56;;;17.95;44.13
53514;BME280;39768;54.148;12.174;2023-09-19T15:30:31;100506.16;;;18.07;43.11
53514;BME280;39768;54.148;12.174;2023-09-19T15:35:24;100487.19;;;17.94;44.55
53514;BME280;39768;54.148;12.174;2023-09-19T15:45:03;100489.25;;;17.64;44.91
53514;BME280;39768;54.148;12.174;2023-09-19T15:50:42;100501.88;;;17.24;45.99
53514;BME280;39768;54.148;12.174;2023-09-19T15:55:29;100497.34;;;17.24;46.59
53514;BME280;39768;54.148;12.174;2023-09-19T16:10:24;100494.19;;;17.57;45.65
53514;BME280;39768;54.148;12.174;2023-09-19T16:33:38;100485.78;;;17.08;46.21
53514;BME280;39768;54.148;12.174;2023-09-19T16:38:13;100487.03;;;17.02;47.55
53514;BME280;39768;54.148;12.174;2023-09-19T16:42:15;100489.13;;;17.26;46.28
53514;BME280;39768;54.148;12.174;2023-09-19T16:46:24;100477.56;;;16.95;47.95
53514;BME280;39768;54.148;12.174;2023-09-19T16:50:26;100484.88;;;17.22;46.98
53514;BME280;39768;54.148;12.174;2023-09-19T16:54:34;100482.50;;;17.03;47.21
53514;BME280;39768;54.148;12.174;2023-09-19T16:58:41;100479.63;;;17.33;47.00
53514;BME280;39768;54.148;12.174;2023-09-19T17:02:46;100470.53;;;17.34;46.88
53514;BME280;39768;54.148;12.174;2023-09-19T17:06:53;100471.50;;;16.92;47.28
53514;BME280;39768;54.148;12.174;2023-09-19T17:11:06;100470.00;;;17.14;47.61
53514;BME280;39768;54.148;12.174;2023-09-19T17:15:10;100469.84;;;16.89;48.42
53514;BME280;39768;54.148;12.174;2023-09-19T17:19:12;100475.13;;;16.64;49.40
53514;BME280;39768;54.148;12.174;2023-09-19T17:23:13;100472.97;;;16.69;49.55
53514;BME280;39768;54.148;12.174;2023-09-19T17:27:15;100469.19;;;16.71;49.79
53514;BME280;39768;54.148;12.174;2023-09-19T17:31:21;100468.13;;;16.88;49.67
53514;BME280;39768;54.148;12.174;2023-09-19T17:35:24;100472.75;;;17.00;49.36
53514;BME280;39768;54.148;12.174;2023-09-19T17:39:25;100468.50;;;17.10;49.36
53514;BME280;39768;54.148;12.174;2023-09-19T17:43:27;100464.75;;;16.70;50.49
53514;BME280;39768;54.148;12.174;2023-09-19T17:47:28;100476.13;;;16.90;50.40
53514;BME280;39768;54.148;12.174;2023-09-19T17:51:30;100474.03;;;16.80;50.90
53514;BME280;39768;54.148;12.174;2023-09-19T17:55:36;100470.34;;;16.81;50.81
53514;BME280;39768;54.148;12.174;2023-09-19T17:59:38;100465.13;;;16.93;51.41
53514;BME280;39768;54.148;12.174;2023-09-19T18:03:40;100460.03;;;16.74;51.96
53514;BME280;39768;54.148;12.174;2023-09-19T18:07:45;100475.03;;;17.21;50.72
53514;BME280;39768;54.148;12.174;2023-09-19T18:11:47;100477.00;;;17.04;51.61
53514;BME280;39768;54.148;12.174;2023-09-19T18:15:49;100472.78;;;16.72;52.93
53514;BME280;39768;54.148;12.174;2023-09-19T18:19:51;100475.88;;;16.80;52.83
53514;BME280;39768;54.148;12.174;2023-09-19T18:23:53;100479.91;;;16.73;52.96
53514;BME280;39768;54.148;12.174;2023-09-19T18:27:55;100475.16;;;17.05;52.83
53514;BME280;39768;54.148;12.174;2023-09-19T18:31:56;100467.16;;;17.03;52.04
53514;BME280;39768;54.148;12.174;2023-09-19T18:36:03;100468.81;;;16.77;53.51
53514;BME280;39768;54.148;12.174;2023-09-19T18:40:22;100454.47;;;16.63;53.10
53514;BME280;39768;54.148;12.174;2023-09-19T18:44:31;100473.34;;;16.77;54.04
53514;BME280;39768;54.148;12.174;2023-09-19T18:48:32;100464.81;;;16.97;53.27
53514;BME280;39768;54.148;12.174;2023-09-19T18:52:36;100472.75;;;16.86;54.05
53514;BME280;39768;54.148;12.174;2023-09-19T18:56:41;100472.91;;;16.97;53.53
53514;BME280;39768;54.148;12.174;2023-09-19T19:00:43;100472.91;;;16.97;53.77
53514;BME280;39768;54.148;12.174;2023-09-19T19:04:45;100467.72;;;17.08;53.32
53514;BME280;39768;54.148;12.174;2023-09-19T19:08:46;100461.47;;;16.94;53.72
53514;BME280;39768;54.148;12.174;2023-09-19T19:12:48;100452.56;;;16.51;55.82
53514;BME280;39768;54.148;12.174;2023-09-19T19:16:50;100453.38;;;16.79;54.96
53514;BME280;39768;54.148;12.174;2023-09-19T19:21:02;100442.81;;;16.89;54.24
53514;BME280;39768;54.148;12.174;2023-09-19T19:25:06;100441.16;;;16.60;55.31
53514;BME280;39768;54.148;12.174;2023-09-19T19:29:07;100456.38;;;16.75;54.89
53514;BME280;39768;54.148;12.174;2023-09-19T19:33:09;100453.47;;;16.78;53.93
53514;BME280;39768;54.148;12.174;2023-09-19T19:37:11;100451.97;;;16.45;55.89
53514;BME280;39768;54.148;12.174;2023-09-19T19:41:13;100459.25;;;16.72;55.33
53514;BME280;39768;54.148;12.174;2023-09-19T19:45:15;100457.16;;;16.77;54.63
53514;BME280;39768;54.148;12.174;2023-09-19T19:49:16;100445.44;;;17.05;54.09
53514;BME280;39768;54.148;12.174;2023-09-19T19:53:18;100445.56;;;16.75;54.89
53514;BME280;39768;54.148;12.174;2023-09-19T19:57:20;100448.34;;;16.88;55.17
53514;BME280;39768;54.148;12.174;2023-09-19T20:01:21;100449.59;;;16.68;55.03
53514;BME280;39768;54.148;12.174;2023-09-19T20:05:23;100433.75;;;16.90;54.30
53514;BME280;39768;54.148;12.174;2023-09-19T20:09:25;100441.97;;;16.89;54.77
53514;BME280;39768;54.148;12.174;2023-09-19T20:13:26;100442.81;;;16.89;55.10
53514;BME280;39768;54.148;12.174;2023-09-19T20:17:28;100440.31;;;17.00;54.64
53514;BME280;39768;54.148;12.174;2023-09-19T20:21:31;100449.59;;;16.82;55.09
53514;BME280;39768;54.148;12.174;2023-09-19T20:25:35;100458.13;;;17.17;54.30
53514;BME280;39768;54.148;12.174;2023-09-19T20:29:37;100464.31;;;17.19;54.87
53514;BME280;39768;54.148;12.174;2023-09-19T20:33:40;100472.22;;;17.49;53.32
53514;BME280;39768;54.148;12.174;2023-09-19T20:37:42;100452.16;;;16.98;54.90
53514;BME280;39768;54.148;12.174;2023-09-19T20:41:44;100455.72;;;17.12;54.95
53514;BME280;39768;54.148;12.174;2023-09-19T20:45:46;100469.47;;;16.95;55.41
53514;BME280;39768;54.148;12.174;2023-09-19T20:49:48;100459.44;;;17.51;53.53
53514;BME280;39768;54.148;12.174;2023-09-19T20:53:49;100466.28;;;17.03;55.28
53514;BME280;39768;54.148;12.174;2023-09-19T20:57:52;100474.00;;;17.36;54.30
53514;BME280;39768;54.148;12.174;2023-09-19T21:14:06;100459.03;;;17.30;55.42
53514;BME280;39768;54.148;12.174;2023-09-19T21:19:52;100462.47;;;17.46;54.92
53514;BME280;39768;54.148;12.174;2023-09-19T21:25:08;100473.56;;;17.42;54.96
53514;BME280;39768;54.148;12.174;2023-09-19T21:30:07;100472.59;;;17.43;55.38
53514;BME280;39768;54.148;12.174;2023-09-19T21:35:14;100469.63;;;17.21;55.84
53514;BME280;39768;54.148;12.174;2023-09-19T21:40:33;100470.38;;;17.23;55.21
53514;BME280;39768;54.148;12.174;2023-09-19T21:45:52;100466.41;;;17.55;54.90
53514;BME280;39768;54.148;12.174;2023-09-19T22:03:02;100458.28;;;17.55;55.13
53514;BME280;39768;54.148;12.174;2023-09-19T22:13:31;100437.78;;;16.97;56.86
53514;BME280;39768;54.148;12.174;2023-09-19T22:19:12;100449.56;;;17.37;55.74
53514;BME280;39768;54.148;12.174;2023-09-19T22:24:39;100445.94;;;17.51;55.47
53514;BME280;39768;54.148;12.174;2023-09-19T22:29:41;100443.81;;;17.42;55.65
53514;BME280;39768;54.148;12.174;2023-09-19T22:40:20;100453.94;;;17.52;56.28
53514;BME280;39768;54.148;12.174;2023-09-19T22:45:15;100458.22;;;17.15;57.99
53514;BME280;39768;54.148;12.174;2023-09-19T22:50:32;100448.69;;;17.37;57.57
53514;BME280;39768;54.148;12.174;2023-09-19T22:56:20;100447.75;;;17.50;58.49
53514;BME280;39768;54.148;12.174;2023-09-19T23:01:42;100450.63;;;17.35;58.91
53514;BME280;39768;54.148;12.174;2023-09-19T23:12:19;100452.16;;;17.39;58.76
53514;BME280;39768;54.148;12.174;2023-09-19T23:17:20;100459.91;;;17.31;58.10
53514;BME280;39768;54.148;12.174;2023-09-19T23:22:11;100459.97;;;17.16;59.19
53514;BME280;39768;54.148;12.174;2023-09-19T23:27:15;100466.84;;;17.35;59.33
53514;BME280;39768;54.148;12.174;2023-09-19T23:33:15;100475.16;;;17.32;60.60
53514;BME280;39768;54.148;12.174;2023-09-19T23:38:30;100480.47;;;17.06;62.98
53514;BME280;39768;54.148;12.174;2023-09-19T23:48:34;100477.56;;;17.09;63.39
53514;BME280;39768;54.148;12.174;2023-09-19T23:53:23;100477.25;;;17.14;63.62
53514;BME280;39768;54.148;12.174;2023-09-19T23:58:24;100484.81;;;17.36;62.63
